Time;durP1;ratioP1;P1;durP2;ratioP2;P2;SDS_P1;SDS_P2;PMS_P1;PMS_P2;Temp;Humidity;BMP_temperature;BMP_pressure;BME280_temperature;BME280_humidity;BME280_pressure;Samples;Min_cycle;Max_cycle;Signal;HPM_P1;HPM_P2
2022/05/02 00:00:20;;;;;;;;;21.00;13.50;;;;;12.70;55.80;101621.09;5037363;28;45433;-72
2022/05/02 00:02:46;;;;;;;;;11.50;11.50;;;;;12.68;55.26;101622.88;5037769;28;45734;-72
2022/05/02 00:05:12;;;;;;;;;17.50;15.75;;;;;12.66;54.33;101619.44;5037176;28;45508;-75
2022/05/02 00:07:38;;;;;;;;;18.00;18.00;;;;;12.61;54.74;101611.69;5038107;28;45425;-71
2022/05/02 00:10:07;;;;;;;;;16.25;14.00;;;;;12.62;54.78;101616.06;5038822;28;45516;-72
2022/05/02 00:12:33;;;;;;;;;21.00;16.75;;;;;12.62;54.55;101600.41;5039019;28;45373;-68
2022/05/02 00:14:58;;;;;;;;;18.50;13.25;;;;;12.65;54.88;101600.34;5038817;28;45375;-69
2022/05/02 00:17:56;;;;;;;;;20.00;17.00;;;;;12.69;54.20;101603.72;5038868;28;45392;-68
2022/05/02 00:20:09;;;;;;;;;14.50;13.00;;;;;12.72;54.87;101598.44;5041138;28;45481;-70
2022/05/02 00:22:35;;;;;;;;;17.75;15.00;;;;;12.73;54.27;101592.31;5040991;28;46313;-69
2022/05/02 00:25:00;;;;;;;;;22.00;19.50;;;;;12.75;54.18;101586.16;5041635;28;45632;-71
2022/05/02 00:27:26;;;;;;;;;27.50;21.00;;;;;12.76;53.90;101589.63;5044979;28;45430;-67
2022/05/02 00:29:51;;;;;;;;;26.50;22.50;;;;;12.80;53.83;101586.91;5049463;28;45484;-71
2022/05/02 00:32:17;;;;;;;;;37.75;29.25;;;;;12.85;53.91;101593.81;5048623;28;47092;-73
2022/05/02 00:34:42;;;;;;;;;27.75;26.00;;;;;12.84;54.18;101582.50;5051104;28;45409;-72
2022/05/02 00:37:07;;;;;;;;;37.00;34.00;;;;;12.85;54.67;101593.81;5048190;28;45343;-70
2022/05/02 00:39:33;;;;;;;;;51.25;38.00;;;;;12.77;55.24;101580.91;5041497;28;45458;-70
2022/05/02 00:41:58;;;;;;;;;52.00;38.00;;;;;12.75;53.98;101587.94;5041030;28;45394;-69
2022/05/02 00:44:24;;;;;;;;;50.75;38.25;;;;;12.76;54.26;101592.25;5041202;28;45170;-69
2022/05/02 00:46:50;;;;;;;;;55.50;40.25;;;;;12.70;54.18;101579.34;5041184;28;45265;-71
2022/05/02 00:49:16;;;;;;;;;48.00;38.75;;;;;12.71;54.75;101586.28;5040000;28;46309;-71
2022/05/02 00:51:41;;;;;;;;;43.75;33.75;;;;;12.67;54.51;101577.69;5040839;28;45503;-71
2022/05/02 00:54:07;;;;;;;;;32.50;26.50;;;;;12.68;54.60;101581.16;5040960;28;45331;-72
2022/05/02 00:56:33;;;;;;;;;17.50;16.50;;;;;12.69;55.17;101572.44;5041398;28;45295;-71
2022/05/02 00:59:00;;;;;;;;;23.25;21.50;;;;;12.67;54.39;101572.47;5040800;28;45517;-69
2022/05/02 01:01:25;;;;;;;;;26.50;19.50;;;;;12.65;54.61;101565.56;5040698;28;46474;-69
2022/05/02 01:03:51;;;;;;;;;24.00;21.25;;;;;12.61;54.67;101554.31;5040004;28;45244;-70
2022/05/02 01:09:00;;;;;;;;;30.75;22.00;;;;;12.62;54.04;101553.47;5029786;28;45503;-70
2022/05/02 01:11:25;;;;;;;;;28.50;19.75;;;;;12.61;54.50;101554.31;5039171;28;46288;-69
2022/05/02 01:13:51;;;;;;;;;24.00;21.25;;;;;12.60;54.70;101543.94;5040130;28;45150;-71
2022/05/02 01:16:25;;;;;;;;;27.25;22.25;;;;;12.58;54.63;101541.38;5040686;28;45217;-67
2022/05/02 01:18:53;;;;;;;;;23.75;19.75;;;;;12.57;55.44;101547.47;5041221;28;45318;-70
2022/05/02 01:21:21;;;;;;;;;26.00;21.50;;;;;12.51;54.53;101542.41;5042148;28;45500;-69
2022/05/02 01:23:53;;;;;;;;;22.00;18.25;;;;;12.46;54.29;101532.09;5048741;28;45750;-70
2022/05/02 01:26:19;;;;;;;;;22.75;17.75;;;;;12.49;53.98;101538.97;5048136;28;45522;-71
2022/05/02 01:28:50;;;;;;;;;29.50;20.25;;;;;12.44;54.28;101536.47;5045588;28;45649;-73
2022/05/02 01:31:17;;;;;;;;;29.25;23.00;;;;;12.42;54.28;101542.63;5044120;28;45415;-69
2022/05/02 01:33:43;;;;;;;;;19.25;18.25;;;;;12.38;55.25;101538.34;5039733;28;45456;-69
2022/05/02 01:36:09;;;;;;;;;25.25;21.75;;;;;12.33;54.41;101533.25;5040907;28;45564;-67
2022/05/02 01:38:37;;;;;;;;;21.00;18.00;;;;;12.32;55.18;101539.34;5042032;28;45453;-68
2022/05/02 01:41:04;;;;;;;;;29.75;20.75;;;;;12.30;54.80;101545.50;5038734;28;45621;-67
2022/05/02 01:43:31;;;;;;;;;23.25;20.00;;;;;12.26;55.82;101542.09;5045397;28;46048;-67
2022/05/02 01:45:57;;;;;;;;;22.25;18.25;;;;;12.23;55.25;101536.09;5045174;28;45628;-67
2022/05/02 01:48:22;;;;;;;;;21.25;20.25;;;;;12.22;54.49;101542.19;5049687;28;45806;-68
2022/05/02 01:50:48;;;;;;;;;23.50;18.25;;;;;12.20;55.33;101542.22;5046944;28;45465;-71
2022/05/02 01:53:13;;;;;;;;;23.00;19.25;;;;;12.23;55.50;101543.91;5045504;28;45447;-70
2022/05/02 01:55:40;;;;;;;;;25.50;23.00;;;;;12.20;55.35;101547.41;5046116;28;45691;-73
2022/05/02 01:58:06;;;;;;;;;21.50;19.25;;;;;12.18;55.56;101544.84;5047769;28;45514;-70
2022/05/02 02:00:31;;;;;;;;;23.50;20.50;;;;;12.18;56.01;101544.84;5048172;28;46123;-70
2022/05/02 02:02:56;;;;;;;;;28.25;23.75;;;;;12.12;55.66;101544.13;5047885;28;45490;-70
2022/05/02 02:08:06;;;;;;;;;33.00;23.25;;;;;12.11;55.63;101545.03;5047371;28;45474;-73
2022/05/02 02:10:31;;;;;;;;;22.00;21.25;;;;;12.11;55.45;101539.81;5048063;28;47135;-76
2022/05/02 02:12:56;;;;;;;;;22.25;20.75;;;;;12.12;55.55;101544.13;5044798;28;45502;-74
2022/05/02 02:15:22;;;;;;;;;29.00;24.00;;;;;12.11;55.19;101532.00;5042573;28;45532;-71
2022/05/02 02:17:47;;;;;;;;;21.25;20.75;;;;;12.10;55.17;101546.78;5042849;28;45537;-76
2022/05/02 02:20:12;;;;;;;;;27.75;19.50;;;;;12.09;55.88;101539.00;5044705;28;45645;-76
2022/05/02 02:22:39;;;;;;;;;22.50;21.50;;;;;12.06;56.25;101534.69;5045119;28;45537;-74
2022/05/02 02:25:06;;;;;;;;;26.75;23.75;;;;;12.05;56.15;101539.94;5047039;28;45431;-78
2022/05/02 02:27:32;;;;;;;;;25.25;24.00;;;;;12.04;55.87;101533.88;5044884;28;45508;-75
2022/05/02 02:29:58;;;;;;;;;26.75;23.00;;;;;12.05;55.89;101527.78;5044576;28;45406;-76
2022/05/02 02:32:24;;;;;;;;;20.25;16.75;;;;;12.04;56.05;101525.22;5045249;28;45354;-76
2022/05/02 02:34:49;;;;;;;;;24.75;18.25;;;;;12.03;55.98;101523.50;5046776;28;45473;-77
2022/05/02 02:37:16;;;;;;;;;28.75;21.50;;;;;12.03;55.91;101523.50;5046545;28;45654;-77
2022/05/02 02:39:42;;;;;;;;;28.50;24.00;;;;;12.01;55.79;101520.88;5046631;28;46385;-69
2022/05/02 02:42:07;;;;;;;;;29.75;21.25;;;;;12.00;55.71;101526.13;5046886;28;46041;-71
2022/05/02 02:44:33;;;;;;;;;33.25;22.25;;;;;11.98;56.30;101520.97;5047069;28;45403;-71
2022/05/02 02:46:58;;;;;;;;;21.50;14.50;;;;;11.97;56.30;101527.06;5046150;28;45508;-72
2022/05/02 02:49:23;;;;;;;;;26.25;24.00;;;;;11.96;56.13;101521.88;5049983;28;45460;-74
2022/05/02 02:51:49;;;;;;;;;28.50;22.00;;;;;11.92;57.40;101525.44;5047775;28;45532;-76
2022/05/02 02:54:14;;;;;;;;;29.50;24.00;;;;;11.86;57.78;101516.88;5047245;28;45484;-74
2022/05/02 02:56:39;;;;;;;;;30.00;23.25;;;;;11.81;56.69;101505.72;5045282;28;45525;-76
2022/05/02 02:59:05;;;;;;;;;32.25;24.50;;;;;11.83;56.65;101521.28;5038690;28;45523;-75
2022/05/02 03:01:30;;;;;;;;;28.75;26.25;;;;;11.79;56.88;101517.88;5037601;28;45599;-76
2022/05/02 03:03:56;;;;;;;;;22.50;20.00;;;;;11.80;57.04;101516.97;5038738;28;45478;-77
2022/05/02 03:06:21;;;;;;;;;31.25;27.00;;;;;11.76;57.40;101506.63;5037634;28;45587;-71
2022/05/02 03:08:47;;;;;;;;;22.50;20.25;;;;;11.77;56.71;101503.13;5038475;28;45223;-74
2022/05/02 03:11:13;;;;;;;;;26.25;20.75;;;;;11.75;57.11;101507.53;5038551;28;45296;-75
2022/05/02 03:13:39;;;;;;;;;33.75;28.75;;;;;11.74;57.10;101498.84;5041465;28;45308;-74
2022/05/02 03:16:05;;;;;;;;;40.00;24.50;;;;;11.74;57.50;101503.19;5041594;28;45272;-76
2022/05/02 03:18:31;;;;;;;;;26.50;21.50;;;;;11.72;57.25;101503.22;5042060;28;45404;-78
2022/05/02 03:20:57;;;;;;;;;27.25;21.25;;;;;11.69;57.25;101498.09;5041365;28;45426;-78
2022/05/02 03:23:23;;;;;;;;;36.75;26.25;;;;;11.66;57.80;101492.94;5042103;28;45607;-74
2022/05/02 03:25:48;;;;;;;;;26.75;21.25;;;;;11.64;57.66;101489.53;5041776;28;45496;-74
2022/05/02 03:28:14;;;;;;;;;31.00;26.25;;;;;11.65;57.08;101491.25;5042055;28;45603;-74
2022/05/02 03:30:40;;;;;;;;;32.50;21.50;;;;;11.58;57.85;101489.63;5042099;28;45431;-74
2022/05/02 03:33:05;;;;;;;;;30.00;24.75;;;;;11.59;57.60;101497.41;5041191;28;45871;-78
2022/05/02 03:35:31;;;;;;;;;32.75;25.25;;;;;11.57;56.51;101487.91;5039186;28;45773;-77
2022/05/02 03:37:56;;;;;;;;;27.50;23.00;;;;;11.55;57.78;101487.09;5039755;28;46184;-76
2022/05/02 03:40:22;;;;;;;;;26.00;23.00;;;;;11.51;58.27;101488.03;5039585;28;45414;-76
2022/05/02 03:42:47;;;;;;;;;29.00;27.00;;;;;11.49;58.75;101487.22;5039176;28;45373;-76
2022/05/02 03:45:13;;;;;;;;;40.75;31.50;;;;;11.45;58.31;101490.78;5039332;28;45428;-77
2022/05/02 03:47:38;;;;;;;;;30.50;26.75;;;;;11.42;60.21;101485.63;5040909;28;45408;-77
2022/05/02 03:50:04;;;;;;;;;34.25;26.25;;;;;11.40;59.13;101484.75;5042097;28;45368;-76
2022/05/02 03:52:30;;;;;;;;;30.00;26.50;;;;;11.38;60.70;101490.00;5039783;28;45495;-76
2022/05/02 03:54:55;;;;;;;;;39.50;28.00;;;;;11.34;59.16;101482.28;5041246;28;45293;-80
2022/05/02 03:57:20;;;;;;;;;37.50;28.50;;;;;11.35;59.54;101486.59;5040657;28;45599;-76
2022/05/02 03:59:47;;;;;;;;;34.50;28.00;;;;;11.33;58.55;101485.78;5041043;28;45571;-75
2022/05/02 04:02:12;;;;;;;;;29.50;27.50;;;;;11.35;59.97;101486.59;5041148;28;45437;-74
2022/05/02 04:04:38;;;;;;;;;32.00;27.00;;;;;11.32;60.57;101484.94;5041075;28;45307;-75
2022/05/02 04:07:04;;;;;;;;;35.50;33.75;;;;;11.34;59.15;101490.09;5040710;28;46639;-75
2022/05/02 04:09:29;;;;;;;;;37.75;30.00;;;;;11.35;59.49;101486.59;5041158;28;45293;-76
2022/05/02 04:11:56;;;;;;;;;36.50;28.50;;;;;11.37;59.63;101488.28;5041200;28;45403;-76
2022/05/02 04:14:21;;;;;;;;;31.50;30.25;;;;;11.38;59.85;101490.00;5040966;28;45497;-76
2022/05/02 04:16:47;;;;;;;;;41.75;29.25;;;;;11.37;59.67;101487.44;5040920;28;46301;-76
2022/05/02 04:19:13;;;;;;;;;32.75;27.00;;;;;11.35;59.28;101484.88;5041168;28;45265;-76
2022/05/02 04:21:38;;;;;;;;;39.25;29.50;;;;;11.34;60.33;101487.50;5041052;28;45494;-71
2022/05/02 04:24:04;;;;;;;;;30.25;26.25;;;;;11.31;60.47;101488.41;5040631;28;45229;-72
2022/05/02 04:26:29;;;;;;;;;27.00;18.25;;;;;11.28;60.54;101489.34;5041018;28;45265;-72
2022/05/02 04:28:55;;;;;;;;;33.50;29.25;;;;;11.27;60.38;101490.22;5041053;28;45370;-72
2022/05/02 04:31:20;;;;;;;;;37.75;27.00;;;;;11.30;60.26;101488.44;5040866;28;45205;-72
2022/05/02 04:33:45;;;;;;;;;35.25;31.50;;;;;11.30;59.91;101491.03;5041140;28;45278;-71
2022/05/02 04:36:11;;;;;;;;;34.00;33.50;;;;;11.31;60.02;101490.16;5042844;28;45371;-71
2022/05/02 04:38:36;;;;;;;;;36.50;30.00;;;;;11.34;59.95;101493.56;5039531;28;45936;-71
2022/05/02 04:41:02;;;;;;;;;36.50;31.75;;;;;11.36;60.01;101489.19;5041287;28;45489;-72
2022/05/02 04:43:27;;;;;;;;;36.50;28.25;;;;;11.37;59.91;101490.03;5041096;28;45307;-72
2022/05/02 04:45:53;;;;;;;;;38.50;31.50;;;;;11.35;60.15;101492.66;5040504;28;45398;-73
2022/05/02 04:48:19;;;;;;;;;33.00;30.00;;;;;11.37;60.24;101484.84;5045600;28;45353;-72
2022/05/02 04:50:44;;;;;;;;;45.00;35.75;;;;;11.37;61.14;101492.63;5041605;28;45320;-73
2022/05/02 04:53:09;;;;;;;;;30.00;27.25;;;;;11.33;61.54;101490.97;5040842;28;45498;-73
2022/05/02 04:55:35;;;;;;;;;36.50;32.75;;;;;11.26;60.97;101493.72;5040967;28;45425;-72
2022/05/02 04:58:00;;;;;;;;;37.25;32.50;;;;;11.26;60.36;101498.06;5040988;28;45360;-73
2022/05/02 05:00:26;;;;;;;;;33.00;31.00;;;;;11.27;61.50;101491.97;5039558;28;45371;-73
2022/05/02 05:02:51;;;;;;;;;41.50;31.50;;;;;11.31;60.17;101500.56;5040985;28;45232;-72
2022/05/02 05:05:17;;;;;;;;;50.00;38.25;;;;;11.36;60.15;101493.53;5040310;28;46236;-71
2022/05/02 05:07:43;;;;;;;;;39.25;31.50;;;;;11.38;60.94;101491.75;5040527;28;45307;-72
2022/05/02 05:10:09;;;;;;;;;36.50;34.50;;;;;11.41;60.75;101494.28;5040476;28;45348;-72
2022/05/02 05:12:58;;;;;;;;;41.00;33.25;;;;;11.42;60.17;101494.28;5040403;28;45464;-72
2022/05/02 05:18:53;;;;;;;;;40.50;32.50;;;;;11.52;59.83;101500.16;5040623;28;45806;-71
2022/05/02 05:21:50;;;;;;;;;38.75;35.00;;;;;11.56;59.90;101499.22;5040031;28;45250;-71
2022/05/02 05:24:42;;;;;;;;;46.50;35.75;;;;;11.62;60.97;101500.84;5040330;28;45540;-69
2022/05/02 05:27:19;;;;;;;;;50.50;36.75;;;;;11.66;60.86;101502.50;5040378;28;45628;-69
2022/05/02 05:29:49;;;;;;;;;39.25;32.50;;;;;11.67;60.80;101499.88;5039690;28;45243;-68
2022/05/02 05:32:34;;;;;;;;;46.50;37.25;;;;;11.72;60.05;101492.81;5040265;28;45496;-69
2022/05/02 05:35:04;;;;;;;;;47.00;37.75;;;;;11.76;59.68;101497.06;5034604;28;45339;-69
2022/05/02 05:37:45;;;;;;;;;50.75;34.50;;;;;11.85;60.31;101493.47;5042345;28;46545;-69
2022/05/02 05:40:32;;;;;;;;;43.00;36.00;;;;;11.88;59.59;101489.06;5046198;28;45797;-69
2022/05/02 05:43:06;;;;;;;;;52.25;37.50;;;;;11.90;59.66;101496.84;5038889;28;45352;-69
2022/05/02 05:45:56;;;;;;;;;50.00;38.50;;;;;11.93;59.25;101498.50;5038502;28;45324;-69
2022/05/02 05:48:35;;;;;;;;;45.25;38.00;;;;;11.96;58.98;101491.47;5038873;28;46202;-70
2022/05/02 05:51:32;;;;;;;;;49.75;38.25;;;;;12.01;59.30;101488.78;5026678;28;45370;-69
2022/05/02 05:54:00;;;;;;;;;34.50;30.25;;;;;12.05;58.57;101490.44;5039854;28;45303;-68
2022/05/02 05:56:38;;;;;;;;;51.50;36.50;;;;;12.09;58.35;101492.94;5038973;28;45478;-68
2022/05/02 05:59:28;;;;;;;;;53.75;37.25;;;;;12.12;58.29;101497.22;5039118;28;46352;-75
2022/05/02 06:02:05;;;;;;;;;46.50;37.50;;;;;12.18;58.46;101495.34;5038939;28;45301;-77
2022/05/02 06:04:33;;;;;;;;;44.25;36.00;;;;;12.21;58.16;101491.81;5039516;28;45369;-78
2022/05/02 06:06:58;;;;;;;;;41.25;34.25;;;;;12.26;57.75;101499.53;5039174;28;45526;-76
2022/05/02 06:09:28;;;;;;;;;46.50;35.50;;;;;12.28;58.42;101496.00;5039555;28;45464;-77
2022/05/02 06:11:57;;;;;;;;;43.00;32.00;;;;;12.31;58.15;101495.06;5039413;28;45852;-78
2022/05/02 06:14:26;;;;;;;;;44.25;38.00;;;;;12.36;57.68;101496.69;5039660;28;45343;-79
2022/05/02 06:19:38;;;;;;;;;25.00;17.00;;;;;12.53;57.31;101500.66;5039542;28;45231;-81
2022/05/02 06:22:05;;;;;;;;;43.25;36.75;;;;;12.57;57.36;101500.53;5039682;28;45316;-79
2022/05/02 06:24:32;;;;;;;;;47.25;35.00;;;;;12.63;57.22;101505.63;5040213;28;45276;-77
2022/05/02 06:26:59;;;;;;;;;51.00;37.00;;;;;12.71;57.23;101505.44;5038417;28;45884;-76
2022/05/02 06:29:25;;;;;;;;;41.50;33.25;;;;;12.75;57.22;101502.72;5039056;28;45392;-75
2022/05/02 06:31:54;;;;;;;;;42.25;35.00;;;;;12.82;56.67;101515.63;5039433;28;45312;-78
2022/05/02 06:34:26;;;;;;;;;44.00;37.00;;;;;12.85;56.99;101505.97;5039598;28;45241;-78
2022/05/02 06:37:17;;;;;;;;;45.00;35.00;;;;;12.93;56.92;101509.22;5039294;28;45493;-75
2022/05/02 06:39:57;;;;;;;;;34.25;29.75;;;;;12.96;56.40;101516.13;5039407;28;45343;-77
2022/05/02 06:42:44;;;;;;;;;47.75;37.00;;;;;12.97;56.32;101510.00;5039168;28;45436;-78
2022/05/02 06:45:31;;;;;;;;;51.00;38.00;;;;;13.02;56.20;101509.03;5039424;28;45296;-77
2022/05/02 06:48:18;;;;;;;;;45.00;37.50;;;;;13.07;56.18;101501.06;5038859;28;45434;-77
2022/05/02 06:50:55;;;;;;;;;45.75;34.75;;;;;13.11;56.44;101510.53;5037258;28;46396;-78
2022/05/02 06:53:32;;;;;;;;;43.75;36.25;;;;;13.17;55.97;101505.13;5037900;28;45876;-77
2022/05/02 06:56:18;;;;;;;;;38.25;30.25;;;;;13.26;55.63;101518.00;5027931;28;45477;-78
2022/05/02 06:58:50;;;;;;;;;48.50;34.25;;;;;13.34;55.59;101508.19;5038106;28;45359;-78
2022/05/02 07:01:33;;;;;;;;;45.00;37.75;;;;;13.42;55.29;101507.16;5038658;28;46308;-79
2022/05/02 07:04:17;;;;;;;;;45.50;36.25;;;;;13.39;54.21;101510.69;5026781;28;45337;-78
2022/05/02 07:07:04;;;;;;;;;42.00;35.25;;;;;13.38;54.41;101515.03;5035937;28;45404;-77
2022/05/02 07:09:45;;;;;;;;;40.25;35.75;;;;;13.34;54.37;101513.41;5038945;28;45582;-77
2022/05/02 07:12:18;;;;;;;;;41.25;35.25;;;;;13.36;54.16;101508.16;5038771;28;46694;-77
2022/05/02 07:15:01;;;;;;;;;51.25;36.25;;;;;13.44;54.10;101510.59;5038757;28;45229;-78
2022/05/02 07:17:47;;;;;;;;;51.00;36.25;;;;;13.52;54.01;101511.22;5037930;28;45275;-76
2022/05/02 07:20:42;;;;;;;;;50.50;37.50;;;;;13.58;53.66;101516.25;5026903;28;45406;-77
2022/05/02 07:23:36;;;;;;;;;52.25;37.00;;;;;13.61;53.46;101514.41;5028178;28;47247;-77
2022/05/02 07:26:07;;;;;;;;;41.75;35.75;;;;;13.72;53.68;101508.91;5038908;28;45410;-78
2022/05/02 07:28:44;;;;;;;;;38.00;30.75;;;;;13.83;53.10;101512.09;5038837;28;45331;-79
2022/05/02 07:31:13;;;;;;;;;36.50;30.25;;;;;13.88;53.01;101507.56;5039076;28;45344;-80
2022/05/02 07:33:39;;;;;;;;;47.00;36.50;;;;;13.87;52.65;101511.09;5038808;28;46167;-79
2022/05/02 07:36:06;;;;;;;;;42.25;34.00;;;;;13.90;52.78;101508.38;5038293;28;45292;-79
2022/05/02 07:38:34;;;;;;;;;51.75;37.00;;;;;13.98;52.61;101513.38;5038924;28;45411;-78
2022/05/02 07:43:58;;;;;;;;;39.50;34.00;;;;;14.10;52.33;101512.19;5038541;28;45844;-79
2022/05/02 07:46:31;;;;;;;;;44.25;35.25;;;;;14.24;52.78;101520.47;5038210;28;45290;-79
2022/05/02 07:48:58;;;;;;;;;45.00;37.00;;;;;14.36;52.39;101514.00;5042809;28;45527;-82
2022/05/02 07:51:25;;;;;;;;;45.25;34.75;;;;;14.50;52.18;101517.06;5038421;28;45230;-80
2022/05/02 07:53:52;;;;;;;;;50.00;36.50;;;;;14.59;50.89;101517.63;5038327;28;46422;-79
2022/05/02 07:56:22;;;;;;;;;51.75;39.75;;;;;14.51;50.51;101514.41;5038624;28;45823;-78
2022/05/02 07:58:48;;;;;;;;;48.00;35.00;;;;;14.54;51.42;101514.31;5039208;28;45306;-78
2022/05/02 08:01:18;;;;;;;;;50.50;39.00;;;;;14.67;51.36;101516.56;5041590;28;45308;-79
2022/05/02 08:03:43;;;;;;;;;47.75;36.50;;;;;14.79;51.20;101511.75;5054322;28;46443;-84
2022/05/02 08:06:28;;;;;;;;;45.50;35.75;;;;;14.87;51.19;101517.63;5041297;28;45567;-83
2022/05/02 08:09:16;;;;;;;;;48.00;36.00;;;;;14.97;50.20;101522.53;5029721;28;45541;-82
2022/05/02 08:12:10;;;;;;;;;44.50;36.75;;;;;15.07;49.98;101523.94;5041851;28;45256;-81
2022/05/02 08:14:51;;;;;;;;;43.75;35.50;;;;;15.23;50.36;101522.53;5033640;28;45305;-83
2022/05/02 08:17:22;;;;;;;;;56.25;42.00;;;;;15.28;50.03;101520.59;5041327;28;45483;-83
2022/05/02 08:20:09;;;;;;;;;49.25;36.75;;;;;15.27;49.97;101518.03;5041030;28;45379;-82
2022/05/02 08:28:56;;;;;;;;;49.00;40.25;;;;;15.68;49.74;101516.63;5040777;28;45411;-83
2022/05/02 08:31:28;;;;;;;;;48.00;36.00;;;;;15.83;49.29;101518.69;5040979;28;45312;-81
2022/05/02 08:34:19;;;;;;;;;41.50;35.50;;;;;15.94;49.18;101511.25;5041733;28;45279;-80
2022/05/02 08:37:02;;;;;;;;;50.00;38.00;;;;;16.08;49.25;101501.09;5045677;28;45462;-76
2022/05/02 08:39:40;;;;;;;;;42.25;35.00;;;;;16.11;48.65;101511.47;5039555;28;45925;-77
2022/05/02 08:42:24;;;;;;;;;46.25;36.00;;;;;16.09;47.64;101500.19;5041622;28;45471;-73
2022/05/02 08:45:27;;;;;;;;;49.75;37.50;;;;;16.11;48.78;101497.50;5039471;28;45285;-75
2022/05/02 08:48:21;;;;;;;;;41.50;34.75;;;;;16.19;48.15;101505.06;5066502;28;46794;-76
2022/05/02 08:50:58;;;;;;;;;54.25;39.00;;;;;16.23;48.01;101504.06;5039425;28;45552;-76
2022/05/02 08:53:40;;;;;;;;;50.75;40.00;;;;;16.30;48.18;101506.38;5041354;28;45562;-76
2022/05/02 08:56:46;;;;;;;;;52.00;40.50;;;;;16.45;47.72;101504.06;5039922;28;45322;-77
2022/05/02 08:59:26;;;;;;;;;50.50;39.00;;;;;16.54;47.97;101509.81;5030536;28;47578;-76
2022/05/02 09:02:16;;;;;;;;;49.50;38.75;;;;;16.63;47.54;101506.81;5055161;28;45268;-80
2022/05/02 09:04:50;;;;;;;;;48.25;37.00;;;;;16.78;47.60;101513.22;5047609;28;45496;-74
2022/05/02 09:07:53;;;;;;;;;50.75;38.75;;;;;16.85;47.73;101514.72;5028770;28;45518;-78
2022/05/02 09:10:48;;;;;;;;;51.00;38.50;;;;;16.95;47.15;101515.16;5080186;27;47009;-71
2022/05/02 09:14:04;;;;;;;;;50.50;41.25;;;;;16.90;46.24;101507.50;5047161;28;45962;-78
2022/05/02 09:16:32;;;;;;;;;54.50;42.25;;;;;16.93;46.51;101504.72;5048395;28;45260;-78
2022/05/02 09:19:03;;;;;;;;;48.25;38.00;;;;;16.97;46.03;101506.31;5046044;28;45598;-79
2022/05/02 09:21:40;;;;;;;;;45.00;35.00;;;;;17.09;46.54;101497.06;5046534;28;45520;-79
2022/05/02 09:24:30;;;;;;;;;40.25;29.75;;;;;17.13;46.12;101503.03;5046298;28;45493;-79
2022/05/02 09:26:56;;;;;;;;;46.75;36.00;;;;;17.20;45.58;101500.06;5048234;28;45419;-77
2022/05/02 09:29:33;;;;;;;;;43.50;38.00;;;;;17.31;45.99;101492.59;5042923;28;45514;-77
2022/05/02 09:32:17;;;;;;;;;44.00;36.50;;;;;17.44;46.21;101494.69;5046885;28;46568;-77
2022/05/02 09:35:02;;;;;;;;;43.50;34.25;;;;;17.52;44.58;101490.81;5049645;28;45291;-77
2022/05/02 09:37:40;;;;;;;;;41.75;33.75;;;;;17.68;45.34;101483.13;5048381;28;45414;-77
2022/05/02 09:40:10;;;;;;;;;40.00;33.00;;;;;17.90;45.11;101481.22;5045361;28;45276;-78
2022/05/02 09:42:56;;;;;;;;;49.50;38.75;;;;;18.04;45.09;101491.09;5050971;28;45363;-78
2022/05/02 09:51:59;;;;;;;;;52.50;40.00;;;;;18.04;44.56;101477.97;5027836;28;45408;-70
2022/05/02 09:57:50;;;;;;;;;52.75;40.75;;;;;17.94;44.31;101477.50;5039827;28;45919;-69
2022/05/02 10:03:32;;;;;;;;;43.50;33.25;;;;;18.03;43.18;101475.41;5039281;28;45241;-71
2022/05/02 10:06:08;;;;;;;;;42.50;33.25;;;;;18.08;43.75;101470.78;5037621;28;47867;-68
2022/05/02 10:08:56;;;;;;;;;50.50;41.50;;;;;18.10;43.27;101475.03;5037958;28;45545;-68
2022/05/02 10:11:34;;;;;;;;;48.75;41.00;;;;;18.09;42.68;101485.63;5039076;28;46616;-71
2022/05/02 10:14:02;;;;;;;;;48.00;38.50;;;;;18.12;43.50;101467.91;5038808;28;45311;-67
2022/05/02 10:16:51;;;;;;;;;46.25;37.00;;;;;18.28;43.71;101467.19;5045318;28;46399;-69
2022/05/02 10:19:39;;;;;;;;;47.25;39.25;;;;;18.42;42.41;101477.88;5046493;28;45887;-70
2022/05/02 10:22:31;;;;;;;;;45.50;36.75;;;;;18.50;41.62;101466.06;5044082;28;45938;-70
2022/05/02 10:25:18;;;;;;;;;49.00;40.00;;;;;18.53;42.56;101463.28;5046258;28;45500;-71
2022/05/02 10:27:55;;;;;;;;;43.50;36.00;;;;;18.67;42.54;101467.06;5044122;28;45492;-70
2022/05/02 10:30:21;;;;;;;;;42.25;35.00;;;;;18.74;41.87;101469.31;5058402;28;45696;-70
2022/05/02 10:32:56;;;;;;;;;42.25;33.75;;;;;18.86;41.85;101459.94;5045730;28;46309;-71
2022/05/02 10:35:24;;;;;;;;;41.25;33.75;;;;;18.95;41.47;101456.84;5042412;28;45463;-78
2022/05/02 10:38:03;;;;;;;;;32.75;28.25;;;;;19.06;41.77;101462.44;5047594;28;46246;-68
2022/05/02 10:40:39;;;;;;;;;44.50;32.75;;;;;19.22;40.13;101458.97;5046808;28;45844;-68
2022/05/02 10:43:09;;;;;;;;;41.00;35.75;;;;;19.30;40.99;101462.06;5050242;28;45468;-68
2022/05/02 10:45:40;;;;;;;;;33.00;32.00;;;;;19.26;40.39;101471.09;5046880;28;45450;-66
2022/05/02 10:48:27;;;;;;;;;43.25;35.50;;;;;19.28;40.18;101453.41;5047026;28;45807;-72
2022/05/02 10:51:19;;;;;;;;;37.25;31.00;;;;;19.28;39.90;101448.97;5043801;28;45916;-67
2022/05/02 10:53:48;;;;;;;;;43.50;35.75;;;;;19.37;40.42;101458.19;5047285;28;45698;-73
2022/05/02 10:56:16;;;;;;;;;42.00;32.25;;;;;19.39;39.96;101451.03;5047429;28;45479;-72
2022/05/02 10:58:44;;;;;;;;;39.75;33.50;;;;;19.29;40.08;101455.09;5043784;28;47374;-69
2022/05/02 11:01:21;;;;;;;;;41.00;33.25;;;;;19.23;39.78;101451.00;5046880;28;45331;-69
2022/05/02 11:04:06;;;;;;;;;40.00;32.25;;;;;19.18;40.52;101444.25;5045925;28;45438;-68
2022/05/02 11:06:52;;;;;;;;;44.50;34.50;;;;;19.29;39.95;101439.28;5045265;28;45473;-68
2022/05/02 11:09:29;;;;;;;;;40.00;32.00;;;;;19.30;40.35;101446.25;5045383;28;46579;-68
2022/05/02 11:11:55;;;;;;;;;35.75;31.75;;;;;19.28;40.08;101434.97;5046785;28;45980;-68
2022/05/02 11:14:29;;;;;;;;;42.75;35.00;;;;;19.41;40.81;101428.09;5045527;28;45399;-68
2022/05/02 11:17:12;;;;;;;;;31.25;28.50;;;;;19.59;40.20;101431.56;5046013;28;45648;-68
2022/05/02 11:22:37;;;;;;;;;45.00;35.00;;;;;19.83;40.25;101434.66;5042664;28;45430;-68
2022/05/02 11:25:10;;;;;;;;;40.25;33.00;;;;;19.79;39.82;101418.13;5047036;28;45307;-68
2022/05/02 11:27:38;;;;;;;;;45.00;36.50;;;;;19.84;40.12;101421.38;5044039;28;45473;-68
2022/05/02 11:30:09;;;;;;;;;33.75;30.00;;;;;20.11;40.10;101426.06;5046068;28;46419;-67
2022/05/02 11:32:36;;;;;;;;;41.75;34.75;;;;;20.34;39.08;101429.09;5046975;28;45847;-67
2022/05/02 11:35:22;;;;;;;;;44.25;33.00;;;;;20.50;39.38;101421.16;5048199;28;45545;-68
2022/05/02 11:38:04;;;;;;;;;38.25;30.75;;;;;20.65;39.35;101422.06;5048385;28;45346;-67
2022/05/02 11:40:41;;;;;;;;;34.75;27.00;;;;;20.64;38.68;101423.00;5049709;28;45486;-67
2022/05/02 11:43:08;;;;;;;;;33.25;28.75;;;;;20.57;39.37;101416.38;5048822;28;46035;-67
2022/05/02 11:45:39;;;;;;;;;35.75;30.00;;;;;20.50;38.61;101426.44;5050989;28;45311;-67
2022/05/02 11:48:20;;;;;;;;;36.75;32.00;;;;;20.46;38.42;101427.56;5049904;28;45376;-67
2022/05/02 11:50:47;;;;;;;;;35.00;30.50;;;;;20.46;38.38;101424.94;5048680;28;46317;-67
2022/05/02 11:53:16;;;;;;;;;33.00;29.50;;;;;20.38;38.30;101415.69;5048161;28;45279;-68
2022/05/02 11:55:43;;;;;;;;;36.00;32.00;;;;;20.36;38.71;101419.28;5048318;28;45481;-68
2022/05/02 11:58:26;;;;;;;;;37.25;30.75;;;;;20.25;38.69;101390.03;5048034;28;45698;-67
2022/05/02 12:00:58;;;;;;;;;31.25;28.75;;;;;20.17;38.58;101413.34;5046646;28;46015;-67
2022/05/02 12:03:25;;;;;;;;;35.25;30.00;;;;;20.19;39.04;101410.63;5049001;28;45930;-66
2022/05/02 12:05:52;;;;;;;;;38.25;32.00;;;;;20.28;38.95;101407.47;5047950;28;45445;-67
2022/05/02 12:08:35;;;;;;;;;31.75;30.00;;;;;20.37;38.03;101404.28;5050413;28;45367;-67